Berwick, Illinois
Current Conditions -  °F | °C
As of 11:55 AM on Friday 24 Oct 2014 (Local Time) from KGBG Reporting Station
Haze Haze  
Wind Chill: 55°   Ceiling: 300
Heat Index: 55°   Visibility: 2.5mi
Dew Point: 54°   Wind: 8mph
Humidity: 99%   Direction: 170°S
Pressure: 30.08"   Gusts: NA
Location:  40.8°N, 90.54°W
Report Text: KGBG 241655Z AUTO 17007KT 2 1/2SM BR OVC003 13/12 A3008 RMK AO2 VIS 2V4 T01250123
Loading
Personal Weather Stations






























Interactive Weather Map
Tropical Storm Tracking
New forecast layout! Learn more

10-Day Weather Forecast

Advertisements
Track Severe Weather on mobile